This demonstration page uses our WeatherBlox Daily Observations layout. Learn more.

36.17497, -115.13722

Hourly Observations for November 22, 2018

Temp ( °F °C ) Dew Point ( °F °C ) Humidity (%) Winds ( mph kmh ) Pressure ( in mb ) Visibility ( mi km ) Precip ( " mm )
12:53 am 00:53 Clear 54 12.2 20 -6.7 26 26 Calm 30.03 1017 10 16.09344 0 0
1:53 am 01:53 Clear 54 12.2 22 -5.6 29 29 Calm 30 1016 10 16.09344 0 0
2:53 am 02:53 Clear 53 11.7 22 -5.6 30 30 Calm 30 1016 10 16.09344 0 0
3:53 am 03:53 Clear 55 12.8 20 -6.7 25 25 SE 9 15 30 1016 10 16.09344 0 0
4:53 am 04:53 Partly Cloudy 53 11.7 21 -6.1 28 28 SSE 7 11 30 1016 10 16.09344 0 0
5:53 am 05:53 Mostly Cloudy 52 11.1 27 -2.8 38 38 W 6 9 30.03 1017 10 16.09344 0.001 0.001
6:53 am 06:53 Partly Cloudy 55 12.8 39 3.9 55 55 S 10 17 30.03 1017 10 16.09344 0 0
7:53 am 07:53 Partly Cloudy 57 13.9 41 5 55 55 SSW 8 13 30.03 1017 10 16.09344 0 0
8:53 am 08:53 Mostly Sunny 60 15.6 39 3.9 46 46 SSE 15 24 30.03 1017 10 16.09344 0 0
9:53 am 09:53 Mostly Sunny 62 16.7 41 5 46 46 S 20 31 30.03 1017 10 16.09344 0 0
10:53 am 10:53 Sunny 66 18.9 36 2.2 33 33 SW 17 28 30 1016 10 16.09344 0 0
11:53 am 11:53 Sunny 67 19.4 32 0 27 27 WSW 12 19 29.97 1015 10 16.09344 0 0
12:53 pm 12:53 Sunny 67 19.4 32 0 27 27 N 3 6 29.97 1015 10 16.09344 0 0
1:53 pm 13:53 Sunny 68 20 33 0.6 27 27 NW 10 17 29.97 1015 10 16.09344 0 0
2:53 pm 14:53 Sunny 68 20 32 0 26 26 W 9 15 29.97 1015 10 16.09344 0 0
3:53 pm 15:53 Sunny 67 19.4 31 -0.6 26 26 NNW 9 15 30 1016 10 16.09344 0 0
4:53 pm 16:53 Clear 64 17.8 33 0.6 32 32 W 9 15 30.03 1017 10 16.09344 0 0
5:53 pm 17:53 Clear 62 16.7 31 -0.6 31 31 NW 9 15 30.06 1018 10 16.09344 0 0
6:53 pm 18:53 Clear 59 15 31 -0.6 35 35 NW 8 13 30.06 1018 10 16.09344 0 0
7:53 pm 19:53 Clear 57 13.9 31 -0.6 37 37 Calm 30.09 1019 10 16.09344 0 0
8:53 pm 20:53 Clear 53 11.7 31 -0.6 43 43 Calm 30.09 1019 10 16.09344 0 0
9:53 pm 21:53 Clear 51 10.6 31 -0.6 46 46 NNW 6 9 30.09 1019 10 16.09344 0 0
10:53 pm 22:53 Clear 50 10 30 -1.1 46 46 NNW 5 7 30.09 1019 10 16.09344 0 0
11:53 pm 23:53 Clear 48 8.9 31 -0.6 52 52 WNW 6 9 30.12 1020 10 16.09344 0 0

Powered by AerisWeather